sensor_id;sensor_type;location;lat;lon;timestamp;P1;durP1;ratioP1;P2;durP2;ratioP2
14994;SDS011;7593;49.006;8.372;2023-08-20T00:01:50;10.18;;;8.27;;
14994;SDS011;7593;49.006;8.372;2023-08-20T00:04:22;9.98;;;9.07;;
14994;SDS011;7593;49.006;8.372;2023-08-20T00:06:52;10.00;;;8.90;;
14994;SDS011;7593;49.006;8.372;2023-08-20T00:09:19;9.95;;;8.88;;
14994;SDS011;7593;49.006;8.372;2023-08-20T00:11:46;14.55;;;9.38;;
14994;SDS011;7593;49.006;8.372;2023-08-20T00:14:14;9.85;;;8.93;;
14994;SDS011;7593;49.006;8.372;2023-08-20T00:16:44;10.27;;;8.40;;
14994;SDS011;7593;49.006;8.372;2023-08-20T00:19:12;9.52;;;8.73;;
14994;SDS011;7593;49.006;8.372;2023-08-20T00:21:44;10.18;;;9.15;;
14994;SDS011;7593;49.006;8.372;2023-08-20T00:24:12;11.05;;;9.05;;
14994;SDS011;7593;49.006;8.372;2023-08-20T00:26:39;10.38;;;9.35;;
14994;SDS011;7593;49.006;8.372;2023-08-20T00:29:06;9.63;;;8.82;;
14994;SDS011;7593;49.006;8.372;2023-08-20T00:31:33;9.65;;;8.50;;
14994;SDS011;7593;49.006;8.372;2023-08-20T00:34:01;10.57;;;8.88;;
14994;SDS011;7593;49.006;8.372;2023-08-20T00:36:28;13.05;;;9.68;;
14994;SDS011;7593;49.006;8.372;2023-08-20T00:38:55;12.88;;;8.98;;
14994;SDS011;7593;49.006;8.372;2023-08-20T00:41:22;12.55;;;9.98;;
14994;SDS011;7593;49.006;8.372;2023-08-20T00:43:49;11.13;;;9.18;;
14994;SDS011;7593;49.006;8.372;2023-08-20T00:46:16;9.82;;;8.82;;
14994;SDS011;7593;49.006;8.372;2023-08-20T00:48:42;10.50;;;8.90;;
14994;SDS011;7593;49.006;8.372;2023-08-20T00:51:11;10.05;;;9.13;;
14994;SDS011;7593;49.006;8.372;2023-08-20T00:53:38;10.90;;;8.57;;
14994;SDS011;7593;49.006;8.372;2023-08-20T00:56:05;10.43;;;9.40;;
14994;SDS011;7593;49.006;8.372;2023-08-20T00:58:32;11.32;;;9.57;;
14994;SDS011;7593;49.006;8.372;2023-08-20T01:00:58;9.75;;;8.70;;
14994;SDS011;7593;49.006;8.372;2023-08-20T01:03:25;10.45;;;9.30;;
14994;SDS011;7593;49.006;8.372;2023-08-20T01:05:53;10.23;;;9.27;;
14994;SDS011;7593;49.006;8.372;2023-08-20T01:08:40;12.68;;;9.48;;
14994;SDS011;7593;49.006;8.372;2023-08-20T01:11:10;9.63;;;8.50;;
14994;SDS011;7593;49.006;8.372;2023-08-20T01:13:43;9.95;;;8.93;;
14994;SDS011;7593;49.006;8.372;2023-08-20T01:16:11;9.90;;;8.90;;
14994;SDS011;7593;49.006;8.372;2023-08-20T01:18:37;9.85;;;8.95;;
14994;SDS011;7593;49.006;8.372;2023-08-20T01:21:06;10.20;;;9.20;;
14994;SDS011;7593;49.006;8.372;2023-08-20T01:23:56;12.98;;;9.38;;
14994;SDS011;7593;49.006;8.372;2023-08-20T01:26:35;10.32;;;9.52;;
14994;SDS011;7593;49.006;8.372;2023-08-20T01:29:16;10.93;;;9.43;;
14994;SDS011;7593;49.006;8.372;2023-08-20T01:31:43;9.73;;;8.75;;
14994;SDS011;7593;49.006;8.372;2023-08-20T01:34:11;10.52;;;9.43;;
14994;SDS011;7593;49.006;8.372;2023-08-20T01:36:38;10.00;;;9.02;;
14994;SDS011;7593;49.006;8.372;2023-08-20T01:39:05;12.15;;;8.55;;
14994;SDS011;7593;49.006;8.372;2023-08-20T01:41:32;9.85;;;8.88;;
14994;SDS011;7593;49.006;8.372;2023-08-20T01:43:59;11.07;;;9.18;;
14994;SDS011;7593;49.006;8.372;2023-08-20T01:46:27;14.25;;;8.75;;
14994;SDS011;7593;49.006;8.372;2023-08-20T01:48:54;9.35;;;8.55;;
14994;SDS011;7593;49.006;8.372;2023-08-20T01:51:21;11.23;;;8.45;;
14994;SDS011;7593;49.006;8.372;2023-08-20T01:53:47;11.13;;;8.25;;
14994;SDS011;7593;49.006;8.372;2023-08-20T01:56:14;14.32;;;8.75;;
14994;SDS011;7593;49.006;8.372;2023-08-20T01:58:41;10.23;;;8.95;;
14994;SDS011;7593;49.006;8.372;2023-08-20T02:01:07;9.60;;;8.60;;
14994;SDS011;7593;49.006;8.372;2023-08-20T02:03:36;9.93;;;9.00;;
14994;SDS011;7593;49.006;8.372;2023-08-20T02:06:03;11.68;;;8.82;;
14994;SDS011;7593;49.006;8.372;2023-08-20T02:08:30;10.50;;;9.52;;
14994;SDS011;7593;49.006;8.372;2023-08-20T02:11:00;10.02;;;9.13;;
14994;SDS011;7593;49.006;8.372;2023-08-20T02:13:27;10.52;;;8.82;;
14994;SDS011;7593;49.006;8.372;2023-08-20T02:15:57;11.43;;;8.70;;
14994;SDS011;7593;49.006;8.372;2023-08-20T02:18:25;10.32;;;8.55;;
14994;SDS011;7593;49.006;8.372;2023-08-20T02:20:53;10.18;;;9.20;;
14994;SDS011;7593;49.006;8.372;2023-08-20T02:23:19;10.13;;;8.95;;
14994;SDS011;7593;49.006;8.372;2023-08-20T02:25:46;12.30;;;9.35;;
14994;SDS011;7593;49.006;8.372;2023-08-20T02:28:13;11.32;;;8.75;;
14994;SDS011;7593;49.006;8.372;2023-08-20T02:30:40;10.07;;;8.70;;
14994;SDS011;7593;49.006;8.372;2023-08-20T02:33:07;11.38;;;9.65;;
14994;SDS011;7593;49.006;8.372;2023-08-20T02:35:34;12.30;;;9.50;;
14994;SDS011;7593;49.006;8.372;2023-08-20T02:38:03;11.02;;;9.32;;
14994;SDS011;7593;49.006;8.372;2023-08-20T02:40:30;10.63;;;8.98;;
14994;SDS011;7593;49.006;8.372;2023-08-20T02:42:57;14.30;;;9.30;;
14994;SDS011;7593;49.006;8.372;2023-08-20T02:45:24;9.90;;;8.90;;
14994;SDS011;7593;49.006;8.372;2023-08-20T02:47:50;10.55;;;9.00;;
14994;SDS011;7593;49.006;8.372;2023-08-20T02:50:17;11.52;;;9.50;;
14994;SDS011;7593;49.006;8.372;2023-08-20T02:52:44;11.85;;;10.75;;
14994;SDS011;7593;49.006;8.372;2023-08-20T02:55:12;11.95;;;10.95;;
14994;SDS011;7593;49.006;8.372;2023-08-20T02:57:39;11.05;;;10.13;;
14994;SDS011;7593;49.006;8.372;2023-08-20T03:00:06;10.75;;;9.50;;
14994;SDS011;7593;49.006;8.372;2023-08-20T03:02:38;10.00;;;9.05;;
14994;SDS011;7593;49.006;8.372;2023-08-20T03:05:07;10.57;;;9.57;;
14994;SDS011;7593;49.006;8.372;2023-08-20T03:07:34;10.52;;;9.63;;
14994;SDS011;7593;49.006;8.372;2023-08-20T03:10:00;11.00;;;10.05;;
14994;SDS011;7593;49.006;8.372;2023-08-20T03:12:29;10.77;;;9.73;;
14994;SDS011;7593;49.006;8.372;2023-08-20T03:14:55;10.98;;;9.98;;
14994;SDS011;7593;49.006;8.372;2023-08-20T03:17:22;12.85;;;9.38;;
14994;SDS011;7593;49.006;8.372;2023-08-20T03:19:55;10.35;;;9.35;;
14994;SDS011;7593;49.006;8.372;2023-08-20T03:22:25;12.68;;;9.75;;
14994;SDS011;7593;49.006;8.372;2023-08-20T03:24:52;10.73;;;9.73;;
14994;SDS011;7593;49.006;8.372;2023-08-20T03:27:19;10.73;;;9.82;;
14994;SDS011;7593;49.006;8.372;2023-08-20T03:29:47;10.48;;;9.48;;
14994;SDS011;7593;49.006;8.372;2023-08-20T03:32:15;11.57;;;9.00;;
14994;SDS011;7593;49.006;8.372;2023-08-20T03:34:41;10.52;;;8.73;;
14994;SDS011;7593;49.006;8.372;2023-08-20T03:37:08;10.25;;;9.25;;
14994;SDS011;7593;49.006;8.372;2023-08-20T03:39:35;10.10;;;9.10;;
14994;SDS011;7593;49.006;8.372;2023-08-20T03:42:02;9.95;;;8.95;;
14994;SDS011;7593;49.006;8.372;2023-08-20T03:44:30;9.63;;;8.70;;
14994;SDS011;7593;49.006;8.372;2023-08-20T03:46:59;9.60;;;8.75;;
14994;SDS011;7593;49.006;8.372;2023-08-20T03:49:25;9.27;;;8.40;;
14994;SDS011;7593;49.006;8.372;2023-08-20T03:51:52;12.05;;;9.20;;
14994;SDS011;7593;49.006;8.372;2023-08-20T03:54:19;10.63;;;9.38;;
14994;SDS011;7593;49.006;8.372;2023-08-20T03:56:46;10.43;;;9.35;;
14994;SDS011;7593;49.006;8.372;2023-08-20T03:59:12;10.23;;;9.23;;
14994;SDS011;7593;49.006;8.372;2023-08-20T04:01:39;10.38;;;9.35;;
14994;SDS011;7593;49.006;8.372;2023-08-20T04:04:08;10.00;;;9.10;;
14994;SDS011;7593;49.006;8.372;2023-08-20T04:06:35;9.50;;;8.60;;
14994;SDS011;7593;49.006;8.372;2023-08-20T04:09:01;11.93;;;9.15;;
14994;SDS011;7593;49.006;8.372;2023-08-20T04:11:28;12.73;;;9.45;;
14994;SDS011;7593;49.006;8.372;2023-08-20T04:13:55;11.20;;;9.45;;
14994;SDS011;7593;49.006;8.372;2023-08-20T04:16:22;10.00;;;9.00;;
14994;SDS011;7593;49.006;8.372;2023-08-20T04:18:49;10.98;;;9.88;;
14994;SDS011;7593;49.006;8.372;2023-08-20T04:21:17;11.90;;;9.40;;
14994;SDS011;7593;49.006;8.372;2023-08-20T04:23:43;9.95;;;9.05;;
14994;SDS011;7593;49.006;8.372;2023-08-20T04:26:10;9.85;;;8.88;;
14994;SDS011;7593;49.006;8.372;2023-08-20T04:28:37;11.68;;;9.48;;
14994;SDS011;7593;49.006;8.372;2023-08-20T04:31:04;9.75;;;8.80;;
14994;SDS011;7593;49.006;8.372;2023-08-20T04:33:31;12.32;;;9.63;;
14994;SDS011;7593;49.006;8.372;2023-08-20T04:35:57;10.43;;;9.38;;
14994;SDS011;7593;49.006;8.372;2023-08-20T04:38:26;10.18;;;9.23;;
14994;SDS011;7593;49.006;8.372;2023-08-20T04:40:52;9.57;;;8.70;;
14994;SDS011;7593;49.006;8.372;2023-08-20T04:43:19;12.32;;;9.27;;
14994;SDS011;7593;49.006;8.372;2023-08-20T04:45:46;12.90;;;8.80;;
14994;SDS011;7593;49.006;8.372;2023-08-20T04:48:12;10.30;;;9.30;;
14994;SDS011;7593;49.006;8.372;2023-08-20T04:50:39;9.70;;;8.82;;
14994;SDS011;7593;49.006;8.372;2023-08-20T04:53:06;9.93;;;8.95;;
14994;SDS011;7593;49.006;8.372;2023-08-20T04:55:34;10.77;;;9.60;;
14994;SDS011;7593;49.006;8.372;2023-08-20T04:58:01;10.52;;;9.40;;
14994;SDS011;7593;49.006;8.372;2023-08-20T05:00:27;11.90;;;9.75;;
14994;SDS011;7593;49.006;8.372;2023-08-20T05:02:54;11.32;;;9.45;;
14994;SDS011;7593;49.006;8.372;2023-08-20T05:05:22;10.35;;;9.35;;
14994;SDS011;7593;49.006;8.372;2023-08-20T05:07:49;11.45;;;10.02;;
14994;SDS011;7593;49.006;8.372;2023-08-20T05:10:15;9.35;;;8.38;;
14994;SDS011;7593;49.006;8.372;2023-08-20T05:12:44;10.85;;;9.27;;
14994;SDS011;7593;49.006;8.372;2023-08-20T05:15:10;14.00;;;9.50;;
14994;SDS011;7593;49.006;8.372;2023-08-20T05:17:37;10.18;;;9.23;;
14994;SDS011;7593;49.006;8.372;2023-08-20T05:20:05;10.70;;;9.38;;
14994;SDS011;7593;49.006;8.372;2023-08-20T05:22:34;10.15;;;8.95;;
14994;SDS011;7593;49.006;8.372;2023-08-20T05:25:00;11.93;;;8.48;;
14994;SDS011;7593;49.006;8.372;2023-08-20T05:27:27;9.27;;;8.38;;
14994;SDS011;7593;49.006;8.372;2023-08-20T05:29:55;10.10;;;9.20;;
14994;SDS011;7593;49.006;8.372;2023-08-20T05:32:22;9.40;;;8.50;;
14994;SDS011;7593;49.006;8.372;2023-08-20T05:34:48;9.25;;;8.38;;
14994;SDS011;7593;49.006;8.372;2023-08-20T05:37:15;9.73;;;8.93;;
14994;SDS011;7593;49.006;8.372;2023-08-20T05:39:42;10.23;;;9.07;;
14994;SDS011;7593;49.006;8.372;2023-08-20T05:42:10;8.57;;;7.82;;
14994;SDS011;7593;49.006;8.372;2023-08-20T05:44:37;9.65;;;8.40;;
14994;SDS011;7593;49.006;8.372;2023-08-20T05:47:05;9.55;;;8.60;;
14994;SDS011;7593;49.006;8.372;2023-08-20T05:49:31;9.98;;;9.07;;
14994;SDS011;7593;49.006;8.372;2023-08-20T05:51:58;9.13;;;8.07;;
14994;SDS011;7593;49.006;8.372;2023-08-20T05:54:25;8.75;;;8.00;;
14994;SDS011;7593;49.006;8.372;2023-08-20T05:56:52;9.43;;;8.43;;
14994;SDS011;7593;49.006;8.372;2023-08-20T05:59:21;8.82;;;8.02;;
14994;SDS011;7593;49.006;8.372;2023-08-20T06:01:48;10.68;;;8.55;;
14994;SDS011;7593;49.006;8.372;2023-08-20T06:04:16;9.00;;;8.18;;
14994;SDS011;7593;49.006;8.372;2023-08-20T06:06:44;10.57;;;8.88;;
14994;SDS011;7593;49.006;8.372;2023-08-20T06:09:11;9.20;;;8.20;;
14994;SDS011;7593;49.006;8.372;2023-08-20T06:11:38;12.25;;;9.70;;
14994;SDS011;7593;49.006;8.372;2023-08-20T06:14:05;10.18;;;8.50;;
14994;SDS011;7593;49.006;8.372;2023-08-20T06:16:31;10.38;;;8.85;;
14994;SDS011;7593;49.006;8.372;2023-08-20T06:18:58;9.10;;;8.30;;
14994;SDS011;7593;49.006;8.372;2023-08-20T06:21:26;10.23;;;8.05;;
14994;SDS011;7593;49.006;8.372;2023-08-20T06:23:53;9.75;;;8.68;;
14994;SDS011;7593;49.006;8.372;2023-08-20T06:26:20;10.38;;;7.85;;
14994;SDS011;7593;49.006;8.372;2023-08-20T06:28:46;10.88;;;7.57;;
14994;SDS011;7593;49.006;8.372;2023-08-20T06:31:13;9.40;;;8.32;;
14994;SDS011;7593;49.006;8.372;2023-08-20T06:33:40;8.30;;;7.50;;
14994;SDS011;7593;49.006;8.372;2023-08-20T06:36:07;10.65;;;8.23;;
14994;SDS011;7593;49.006;8.372;2023-08-20T06:38:35;8.40;;;7.50;;
14994;SDS011;7593;49.006;8.372;2023-08-20T06:41:01;7.80;;;7.03;;
14994;SDS011;7593;49.006;8.372;2023-08-20T06:43:28;6.85;;;6.25;;
14994;SDS011;7593;49.006;8.372;2023-08-20T06:45:55;7.28;;;6.68;;
14994;SDS011;7593;49.006;8.372;2023-08-20T06:48:21;10.95;;;7.05;;
14994;SDS011;7593;49.006;8.372;2023-08-20T06:50:49;7.30;;;6.53;;
14994;SDS011;7593;49.006;8.372;2023-08-20T06:53:16;7.47;;;6.60;;
14994;SDS011;7593;49.006;8.372;2023-08-20T06:55:44;7.07;;;6.28;;
14994;SDS011;7593;49.006;8.372;2023-08-20T06:58:11;6.88;;;6.28;;
14994;SDS011;7593;49.006;8.372;2023-08-20T07:00:37;6.47;;;5.88;;
14994;SDS011;7593;49.006;8.372;2023-08-20T07:03:04;8.43;;;6.13;;
14994;SDS011;7593;49.006;8.372;2023-08-20T07:05:31;7.68;;;6.32;;
14994;SDS011;7593;49.006;8.372;2023-08-20T07:07:58;10.35;;;5.80;;
14994;SDS011;7593;49.006;8.372;2023-08-20T07:10:24;8.93;;;5.68;;
14994;SDS011;7593;49.006;8.372;2023-08-20T07:12:52;9.38;;;5.85;;
14994;SDS011;7593;49.006;8.372;2023-08-20T07:15:19;6.80;;;6.00;;
14994;SDS011;7593;49.006;8.372;2023-08-20T07:17:46;7.45;;;5.55;;
14994;SDS011;7593;49.006;8.372;2023-08-20T07:20:12;6.15;;;5.40;;
14994;SDS011;7593;49.006;8.372;2023-08-20T07:22:39;6.53;;;5.82;;
14994;SDS011;7593;49.006;8.372;2023-08-20T07:25:07;6.25;;;5.57;;
14994;SDS011;7593;49.006;8.372;2023-08-20T07:27:34;6.75;;;5.85;;
14994;SDS011;7593;49.006;8.372;2023-08-20T07:30:02;6.85;;;5.70;;
14994;SDS011;7593;49.006;8.372;2023-08-20T07:32:28;9.02;;;5.88;;
14994;SDS011;7593;49.006;8.372;2023-08-20T07:34:55;6.32;;;5.82;;
14994;SDS011;7593;49.006;8.372;2023-08-20T07:37:21;6.25;;;5.65;;
14994;SDS011;7593;49.006;8.372;2023-08-20T07:39:48;6.00;;;5.40;;
14994;SDS011;7593;49.006;8.372;2023-08-20T07:42:15;9.23;;;6.00;;
14994;SDS011;7593;49.006;8.372;2023-08-20T07:44:43;6.22;;;5.38;;
14994;SDS011;7593;49.006;8.372;2023-08-20T07:47:11;6.32;;;5.57;;
14994;SDS011;7593;49.006;8.372;2023-08-20T07:49:38;6.15;;;5.55;;
14994;SDS011;7593;49.006;8.372;2023-08-20T07:52:04;6.13;;;5.40;;
14994;SDS011;7593;49.006;8.372;2023-08-20T07:54:31;8.43;;;5.20;;
14994;SDS011;7593;49.006;8.372;2023-08-20T07:56:58;7.10;;;5.28;;
14994;SDS011;7593;49.006;8.372;2023-08-20T07:59:24;6.35;;;4.90;;
14994;SDS011;7593;49.006;8.372;2023-08-20T08:01:51;7.85;;;5.00;;
14994;SDS011;7593;49.006;8.372;2023-08-20T08:04:19;8.93;;;4.97;;
14994;SDS011;7593;49.006;8.372;2023-08-20T08:06:46;5.55;;;4.70;;
14994;SDS011;7593;49.006;8.372;2023-08-20T08:09:19;5.78;;;5.28;;
14994;SDS011;7593;49.006;8.372;2023-08-20T08:11:48;6.03;;;4.97;;
14994;SDS011;7593;49.006;8.372;2023-08-20T08:14:15;7.13;;;5.03;;
14994;SDS011;7593;49.006;8.372;2023-08-20T08:16:42;7.63;;;4.90;;
14994;SDS011;7593;49.006;8.372;2023-08-20T08:19:08;7.63;;;5.07;;
14994;SDS011;7593;49.006;8.372;2023-08-20T08:21:36;6.10;;;4.68;;
14994;SDS011;7593;49.006;8.372;2023-08-20T08:24:03;5.95;;;5.10;;
14994;SDS011;7593;49.006;8.372;2023-08-20T08:26:30;6.75;;;4.50;;
14994;SDS011;7593;49.006;8.372;2023-08-20T08:28:59;6.18;;;5.03;;
14994;SDS011;7593;49.006;8.372;2023-08-20T08:31:26;5.72;;;5.15;;
14994;SDS011;7593;49.006;8.372;2023-08-20T08:33:53;6.40;;;4.70;;
14994;SDS011;7593;49.006;8.372;2023-08-20T08:36:19;5.20;;;4.70;;
14994;SDS011;7593;49.006;8.372;2023-08-20T08:38:47;5.00;;;4.30;;
14994;SDS011;7593;49.006;8.372;2023-08-20T08:41:14;6.20;;;5.10;;
14994;SDS011;7593;49.006;8.372;2023-08-20T08:43:41;7.70;;;5.00;;
14994;SDS011;7593;49.006;8.372;2023-08-20T08:46:09;9.40;;;4.75;;
14994;SDS011;7593;49.006;8.372;2023-08-20T08:48:39;10.77;;;5.15;;
14994;SDS011;7593;49.006;8.372;2023-08-20T08:51:07;5.50;;;4.90;;
14994;SDS011;7593;49.006;8.372;2023-08-20T08:53:34;6.35;;;4.95;;
14994;SDS011;7593;49.006;8.372;2023-08-20T08:56:03;6.47;;;4.82;;
14994;SDS011;7593;49.006;8.372;2023-08-20T08:58:30;5.20;;;4.70;;
14994;SDS011;7593;49.006;8.372;2023-08-20T09:00:58;5.25;;;4.70;;
14994;SDS011;7593;49.006;8.372;2023-08-20T09:03:25;7.47;;;4.90;;
14994;SDS011;7593;49.006;8.372;2023-08-20T09:05:54;4.70;;;4.30;;
14994;SDS011;7593;49.006;8.372;2023-08-20T09:08:22;5.35;;;4.53;;
14994;SDS011;7593;49.006;8.372;2023-08-20T09:10:52;4.82;;;4.38;;
14994;SDS011;7593;49.006;8.372;2023-08-20T09:13:23;7.13;;;4.57;;
14994;SDS011;7593;49.006;8.372;2023-08-20T09:15:50;7.43;;;4.65;;
14994;SDS011;7593;49.006;8.372;2023-08-20T09:18:18;5.07;;;4.65;;
14994;SDS011;7593;49.006;8.372;2023-08-20T09:20:44;5.28;;;4.60;;
14994;SDS011;7593;49.006;8.372;2023-08-20T09:23:13;6.97;;;4.72;;
14994;SDS011;7593;49.006;8.372;2023-08-20T09:25:40;6.05;;;4.43;;
14994;SDS011;7593;49.006;8.372;2023-08-20T09:28:07;5.57;;;4.40;;
14994;SDS011;7593;49.006;8.372;2023-08-20T09:30:36;5.35;;;4.45;;
14994;SDS011;7593;49.006;8.372;2023-08-20T09:33:04;4.90;;;4.38;;
14994;SDS011;7593;49.006;8.372;2023-08-20T09:35:33;5.22;;;4.72;;
14994;SDS011;7593;49.006;8.372;2023-08-20T09:37:59;4.93;;;4.53;;
14994;SDS011;7593;49.006;8.372;2023-08-20T09:40:26;7.13;;;4.88;;
14994;SDS011;7593;49.006;8.372;2023-08-20T09:42:54;5.53;;;4.47;;
14994;SDS011;7593;49.006;8.372;2023-08-20T09:45:21;6.70;;;4.75;;
14994;SDS011;7593;49.006;8.372;2023-08-20T09:47:53;4.93;;;4.43;;
14994;SDS011;7593;49.006;8.372;2023-08-20T09:50:22;6.75;;;4.32;;
14994;SDS011;7593;49.006;8.372;2023-08-20T09:52:59;5.95;;;4.50;;
14994;SDS011;7593;49.006;8.372;2023-08-20T09:55:30;4.80;;;4.28;;
14994;SDS011;7593;49.006;8.372;2023-08-20T09:58:00;6.93;;;4.75;;
14994;SDS011;7593;49.006;8.372;2023-08-20T10:00:28;5.47;;;4.97;;
14994;SDS011;7593;49.006;8.372;2023-08-20T10:02:57;5.88;;;4.57;;
14994;SDS011;7593;49.006;8.372;2023-08-20T10:05:24;5.70;;;4.50;;
14994;SDS011;7593;49.006;8.372;2023-08-20T10:07:52;5.22;;;4.25;;
14994;SDS011;7593;49.006;8.372;2023-08-20T10:10:20;6.22;;;4.50;;
14994;SDS011;7593;49.006;8.372;2023-08-20T10:12:47;6.20;;;4.40;;
14994;SDS011;7593;49.006;8.372;2023-08-20T10:15:15;6.45;;;4.20;;
14994;SDS011;7593;49.006;8.372;2023-08-20T10:17:42;4.75;;;4.00;;
14994;SDS011;7593;49.006;8.372;2023-08-20T10:20:13;5.43;;;4.10;;
14994;SDS011;7593;49.006;8.372;2023-08-20T10:22:41;4.53;;;4.13;;
14994;SDS011;7593;49.006;8.372;2023-08-20T10:25:09;4.70;;;4.30;;
14994;SDS011;7593;49.006;8.372;2023-08-20T10:27:37;6.85;;;4.38;;
14994;SDS011;7593;49.006;8.372;2023-08-20T10:30:07;5.13;;;4.15;;
14994;SDS011;7593;49.006;8.372;2023-08-20T10:32:43;5.78;;;4.00;;
14994;SDS011;7593;49.006;8.372;2023-08-20T10:35:12;7.75;;;4.43;;
14994;SDS011;7593;49.006;8.372;2023-08-20T10:37:50;5.40;;;4.10;;
14994;SDS011;7593;49.006;8.372;2023-08-20T10:43:23;5.75;;;4.00;;
14994;SDS011;7593;49.006;8.372;2023-08-20T10:46:01;5.55;;;3.53;;
14994;SDS011;7593;49.006;8.372;2023-08-20T10:48:29;5.93;;;4.00;;
14994;SDS011;7593;49.006;8.372;2023-08-20T10:51:00;5.57;;;3.40;;
14994;SDS011;7593;49.006;8.372;2023-08-20T10:53:33;3.92;;;3.22;;
14994;SDS011;7593;49.006;8.372;2023-08-20T10:56:06;3.75;;;3.35;;
14994;SDS011;7593;49.006;8.372;2023-08-20T10:58:38;4.05;;;3.40;;
14994;SDS011;7593;49.006;8.372;2023-08-20T11:01:16;4.38;;;3.40;;
14994;SDS011;7593;49.006;8.372;2023-08-20T11:03:48;5.95;;;4.07;;
14994;SDS011;7593;49.006;8.372;2023-08-20T11:06:17;3.45;;;3.15;;
14994;SDS011;7593;49.006;8.372;2023-08-20T11:08:44;3.38;;;3.03;;
14994;SDS011;7593;49.006;8.372;2023-08-20T11:11:12;3.85;;;2.97;;
14994;SDS011;7593;49.006;8.372;2023-08-20T11:13:39;3.45;;;3.08;;
14994;SDS011;7593;49.006;8.372;2023-08-20T11:16:08;4.22;;;3.15;;
14994;SDS011;7593;49.006;8.372;2023-08-20T11:18:35;5.28;;;3.15;;
14994;SDS011;7593;49.006;8.372;2023-08-20T11:21:02;6.28;;;3.33;;
14994;SDS011;7593;49.006;8.372;2023-08-20T11:23:30;5.70;;;3.30;;
14994;SDS011;7593;49.006;8.372;2023-08-20T11:25:57;5.72;;;3.22;;
14994;SDS011;7593;49.006;8.372;2023-08-20T11:28:25;4.90;;;3.53;;
14994;SDS011;7593;49.006;8.372;2023-08-20T11:30:52;3.60;;;3.30;;
14994;SDS011;7593;49.006;8.372;2023-08-20T11:33:20;4.97;;;3.42;;
14994;SDS011;7593;49.006;8.372;2023-08-20T11:35:47;4.63;;;3.70;;
14994;SDS011;7593;49.006;8.372;2023-08-20T11:38:14;4.03;;;3.63;;
14994;SDS011;7593;49.006;8.372;2023-08-20T11:40:43;6.28;;;3.40;;
14994;SDS011;7593;49.006;8.372;2023-08-20T11:43:09;6.45;;;3.47;;
14994;SDS011;7593;49.006;8.372;2023-08-20T11:45:43;5.72;;;3.60;;
14994;SDS011;7593;49.006;8.372;2023-08-20T11:48:11;4.60;;;3.13;;
14994;SDS011;7593;49.006;8.372;2023-08-20T11:50:38;4.30;;;3.10;;
14994;SDS011;7593;49.006;8.372;2023-08-20T11:53:05;6.43;;;3.50;;
14994;SDS011;7593;49.006;8.372;2023-08-20T11:55:33;4.35;;;3.30;;
14994;SDS011;7593;49.006;8.372;2023-08-20T11:58:01;6.05;;;3.60;;
14994;SDS011;7593;49.006;8.372;2023-08-20T12:00:29;6.88;;;3.33;;
14994;SDS011;7593;49.006;8.372;2023-08-20T12:02:57;4.72;;;2.97;;
14994;SDS011;7593;49.006;8.372;2023-08-20T12:05:26;3.95;;;3.10;;
14994;SDS011;7593;49.006;8.372;2023-08-20T12:07:56;4.38;;;3.08;;
14994;SDS011;7593;49.006;8.372;2023-08-20T12:10:24;7.10;;;2.83;;
14994;SDS011;7593;49.006;8.372;2023-08-20T12:12:52;3.97;;;2.85;;
14994;SDS011;7593;49.006;8.372;2023-08-20T12:15:20;3.33;;;3.03;;
14994;SDS011;7593;49.006;8.372;2023-08-20T12:17:57;4.45;;;2.70;;
14994;SDS011;7593;49.006;8.372;2023-08-20T12:20:26;7.05;;;3.42;;
14994;SDS011;7593;49.006;8.372;2023-08-20T12:22:54;6.53;;;3.10;;
14994;SDS011;7593;49.006;8.372;2023-08-20T12:25:20;4.93;;;3.03;;
14994;SDS011;7593;49.006;8.372;2023-08-20T12:27:47;2.92;;;2.60;;
14994;SDS011;7593;49.006;8.372;2023-08-20T12:30:14;4.97;;;2.97;;
14994;SDS011;7593;49.006;8.372;2023-08-20T12:32:43;4.80;;;2.75;;
14994;SDS011;7593;49.006;8.372;2023-08-20T12:35:09;3.45;;;3.00;;
14994;SDS011;7593;49.006;8.372;2023-08-20T12:37:36;3.38;;;2.92;;
14994;SDS011;7593;49.006;8.372;2023-08-20T12:40:03;3.50;;;3.13;;
14994;SDS011;7593;49.006;8.372;2023-08-20T12:42:35;5.32;;;3.03;;
14994;SDS011;7593;49.006;8.372;2023-08-20T12:45:02;4.18;;;2.90;;
14994;SDS011;7593;49.006;8.372;2023-08-20T12:47:30;3.38;;;2.90;;
14994;SDS011;7593;49.006;8.372;2023-08-20T12:49:58;4.13;;;2.90;;
14994;SDS011;7593;49.006;8.372;2023-08-20T12:52:25;3.80;;;3.20;;
14994;SDS011;7593;49.006;8.372;2023-08-20T12:54:51;4.47;;;3.00;;
14994;SDS011;7593;49.006;8.372;2023-08-20T12:57:18;6.80;;;3.10;;
14994;SDS011;7593;49.006;8.372;2023-08-20T12:59:45;4.95;;;2.80;;
14994;SDS011;7593;49.006;8.372;2023-08-20T13:02:11;4.30;;;2.63;;
14994;SDS011;7593;49.006;8.372;2023-08-20T13:04:38;3.05;;;2.55;;
14994;SDS011;7593;49.006;8.372;2023-08-20T13:07:07;3.03;;;2.72;;
14994;SDS011;7593;49.006;8.372;2023-08-20T13:09:34;3.03;;;2.50;;
14994;SDS011;7593;49.006;8.372;2023-08-20T13:12:02;5.18;;;2.55;;
14994;SDS011;7593;49.006;8.372;2023-08-20T13:14:30;4.45;;;2.72;;
14994;SDS011;7593;49.006;8.372;2023-08-20T13:16:58;5.15;;;2.50;;
14994;SDS011;7593;49.006;8.372;2023-08-20T13:19:25;3.85;;;2.85;;
14994;SDS011;7593;49.006;8.372;2023-08-20T13:21:52;5.30;;;2.42;;
14994;SDS011;7593;49.006;8.372;2023-08-20T13:24:20;4.35;;;2.60;;
14994;SDS011;7593;49.006;8.372;2023-08-20T13:26:46;4.68;;;2.70;;
14994;SDS011;7593;49.006;8.372;2023-08-20T13:29:13;3.20;;;2.60;;
14994;SDS011;7593;49.006;8.372;2023-08-20T13:31:40;4.95;;;2.53;;
14994;SDS011;7593;49.006;8.372;2023-08-20T13:34:06;3.55;;;2.70;;
14994;SDS011;7593;49.006;8.372;2023-08-20T13:36:33;5.93;;;3.00;;
14994;SDS011;7593;49.006;8.372;2023-08-20T13:39:00;5.50;;;2.97;;
14994;SDS011;7593;49.006;8.372;2023-08-20T13:41:28;4.47;;;2.40;;
14994;SDS011;7593;49.006;8.372;2023-08-20T13:43:55;3.90;;;2.60;;
14994;SDS011;7593;49.006;8.372;2023-08-20T13:46:21;5.95;;;2.85;;
14994;SDS011;7593;49.006;8.372;2023-08-20T13:48:48;2.80;;;2.60;;
14994;SDS011;7593;49.006;8.372;2023-08-20T13:51:15;3.55;;;2.60;;
14994;SDS011;7593;49.006;8.372;2023-08-20T13:53:41;3.30;;;3.00;;
14994;SDS011;7593;49.006;8.372;2023-08-20T13:56:09;3.70;;;2.88;;
14994;SDS011;7593;49.006;8.372;2023-08-20T13:58:37;4.10;;;2.80;;
14994;SDS011;7593;49.006;8.372;2023-08-20T14:01:04;3.53;;;2.53;;
14994;SDS011;7593;49.006;8.372;2023-08-20T14:03:31;3.40;;;2.60;;
14994;SDS011;7593;49.006;8.372;2023-08-20T14:05:57;3.15;;;2.72;;
14994;SDS011;7593;49.006;8.372;2023-08-20T14:08:24;3.22;;;2.85;;
14994;SDS011;7593;49.006;8.372;2023-08-20T14:10:51;6.82;;;3.10;;
14994;SDS011;7593;49.006;8.372;2023-08-20T14:13:17;3.65;;;2.72;;
14994;SDS011;7593;49.006;8.372;2023-08-20T14:15:45;4.70;;;2.53;;
14994;SDS011;7593;49.006;8.372;2023-08-20T14:18:12;2.47;;;2.28;;
14994;SDS011;7593;49.006;8.372;2023-08-20T14:20:39;3.10;;;2.40;;
14994;SDS011;7593;49.006;8.372;2023-08-20T14:23:05;3.15;;;2.55;;
14994;SDS011;7593;49.006;8.372;2023-08-20T14:25:32;3.90;;;2.83;;
14994;SDS011;7593;49.006;8.372;2023-08-20T14:27:59;5.05;;;2.42;;
14994;SDS011;7593;49.006;8.372;2023-08-20T14:30:26;3.97;;;2.60;;
14994;SDS011;7593;49.006;8.372;2023-08-20T14:32:54;2.35;;;2.15;;
14994;SDS011;7593;49.006;8.372;2023-08-20T14:35:21;2.83;;;2.30;;
14994;SDS011;7593;49.006;8.372;2023-08-20T14:37:47;2.83;;;2.20;;
14994;SDS011;7593;49.006;8.372;2023-08-20T14:40:14;3.53;;;2.40;;
14994;SDS011;7593;49.006;8.372;2023-08-20T14:42:41;3.40;;;2.45;;
14994;SDS011;7593;49.006;8.372;2023-08-20T14:45:08;2.58;;;2.30;;
14994;SDS011;7593;49.006;8.372;2023-08-20T14:47:35;3.20;;;2.45;;
14994;SDS011;7593;49.006;8.372;2023-08-20T14:50:03;3.22;;;2.30;;
14994;SDS011;7593;49.006;8.372;2023-08-20T14:52:31;3.15;;;2.20;;
14994;SDS011;7593;49.006;8.372;2023-08-20T14:54:58;3.40;;;2.28;;
14994;SDS011;7593;49.006;8.372;2023-08-20T14:57:25;3.20;;;2.10;;
14994;SDS011;7593;49.006;8.372;2023-08-20T14:59:51;3.28;;;2.20;;
14994;SDS011;7593;49.006;8.372;2023-08-20T15:02:18;3.92;;;2.30;;
14994;SDS011;7593;49.006;8.372;2023-08-20T15:04:45;3.72;;;2.60;;